sensor_id;sensor_type;location;lat;lon;timestamp;P1;durP1;ratioP1;P2;durP2;ratioP2
50291;SDS011;36190;54.980;73.388;2023-08-24T00:01:14;8.45;;;4.00;;
50291;SDS011;36190;54.980;73.388;2023-08-24T00:03:41;8.45;;;3.97;;
50291;SDS011;36190;54.980;73.388;2023-08-24T00:06:11;7.63;;;3.75;;
50291;SDS011;36190;54.980;73.388;2023-08-24T00:08:38;8.65;;;3.70;;
50291;SDS011;36190;54.980;73.388;2023-08-24T00:11:06;6.97;;;3.83;;
50291;SDS011;36190;54.980;73.388;2023-08-24T00:13:35;11.15;;;3.85;;
50291;SDS011;36190;54.980;73.388;2023-08-24T00:16:02;7.85;;;3.92;;
50291;SDS011;36190;54.980;73.388;2023-08-24T00:18:30;9.05;;;4.18;;
50291;SDS011;36190;54.980;73.388;2023-08-24T00:20:58;6.95;;;3.50;;
50291;SDS011;36190;54.980;73.388;2023-08-24T00:23:25;6.88;;;3.63;;
50291;SDS011;36190;54.980;73.388;2023-08-24T00:25:53;9.50;;;3.67;;
50291;SDS011;36190;54.980;73.388;2023-08-24T00:28:21;8.18;;;3.70;;
50291;SDS011;36190;54.980;73.388;2023-08-24T00:30:50;7.25;;;3.45;;
50291;SDS011;36190;54.980;73.388;2023-08-24T00:33:17;6.45;;;3.28;;
50291;SDS011;36190;54.980;73.388;2023-08-24T00:35:45;6.25;;;3.30;;
50291;SDS011;36190;54.980;73.388;2023-08-24T00:38:13;7.30;;;3.65;;
50291;SDS011;36190;54.980;73.388;2023-08-24T00:40:41;8.35;;;4.10;;
50291;SDS011;36190;54.980;73.388;2023-08-24T00:43:09;8.00;;;4.05;;
50291;SDS011;36190;54.980;73.388;2023-08-24T00:45:37;9.23;;;3.88;;
50291;SDS011;36190;54.980;73.388;2023-08-24T00:48:07;11.90;;;5.60;;
50291;SDS011;36190;54.980;73.388;2023-08-24T00:50:35;9.68;;;5.68;;
50291;SDS011;36190;54.980;73.388;2023-08-24T00:53:02;11.23;;;6.20;;
50291;SDS011;36190;54.980;73.388;2023-08-24T00:55:30;11.63;;;6.20;;
50291;SDS011;36190;54.980;73.388;2023-08-24T00:57:58;11.38;;;5.80;;
50291;SDS011;36190;54.980;73.388;2023-08-24T01:00:26;11.20;;;5.05;;
50291;SDS011;36190;54.980;73.388;2023-08-24T01:02:54;10.15;;;5.05;;
50291;SDS011;36190;54.980;73.388;2023-08-24T01:05:23;8.50;;;4.10;;
50291;SDS011;36190;54.980;73.388;2023-08-24T01:07:50;9.93;;;4.38;;
50291;SDS011;36190;54.980;73.388;2023-08-24T01:10:18;8.25;;;4.30;;
50291;SDS011;36190;54.980;73.388;2023-08-24T01:12:50;9.18;;;4.40;;
50291;SDS011;36190;54.980;73.388;2023-08-24T01:15:28;10.30;;;4.60;;
50291;SDS011;36190;54.980;73.388;2023-08-24T01:18:01;10.60;;;4.70;;
50291;SDS011;36190;54.980;73.388;2023-08-24T01:20:34;10.75;;;4.45;;
50291;SDS011;36190;54.980;73.388;2023-08-24T01:23:04;36.88;;;21.85;;
50291;SDS011;36190;54.980;73.388;2023-08-24T01:25:42;11.75;;;6.63;;
50291;SDS011;36190;54.980;73.388;2023-08-24T01:28:17;13.27;;;5.93;;
50291;SDS011;36190;54.980;73.388;2023-08-24T01:30:47;13.73;;;6.88;;
50291;SDS011;36190;54.980;73.388;2023-08-24T01:33:15;10.50;;;5.75;;
50291;SDS011;36190;54.980;73.388;2023-08-24T01:35:42;13.13;;;6.82;;
50291;SDS011;36190;54.980;73.388;2023-08-24T01:38:10;11.77;;;6.40;;
50291;SDS011;36190;54.980;73.388;2023-08-24T01:40:42;16.55;;;7.20;;
50291;SDS011;36190;54.980;73.388;2023-08-24T01:43:20;14.90;;;8.32;;
50291;SDS011;36190;54.980;73.388;2023-08-24T01:45:52;16.05;;;9.95;;
50291;SDS011;36190;54.980;73.388;2023-08-24T01:48:22;18.70;;;11.15;;
50291;SDS011;36190;54.980;73.388;2023-08-24T01:50:51;19.23;;;12.48;;
50291;SDS011;36190;54.980;73.388;2023-08-24T01:53:19;19.85;;;13.30;;
50291;SDS011;36190;54.980;73.388;2023-08-24T01:55:47;20.88;;;13.80;;
50291;SDS011;36190;54.980;73.388;2023-08-24T01:58:14;22.58;;;14.70;;
50291;SDS011;36190;54.980;73.388;2023-08-24T02:00:44;25.02;;;16.13;;
50291;SDS011;36190;54.980;73.388;2023-08-24T02:03:11;23.88;;;16.58;;
50291;SDS011;36190;54.980;73.388;2023-08-24T02:05:39;26.80;;;17.52;;
50291;SDS011;36190;54.980;73.388;2023-08-24T02:08:06;29.45;;;19.35;;
50291;SDS011;36190;54.980;73.388;2023-08-24T02:10:34;30.45;;;18.15;;
50291;SDS011;36190;54.980;73.388;2023-08-24T02:13:01;28.38;;;18.52;;
50291;SDS011;36190;54.980;73.388;2023-08-24T02:15:29;28.70;;;19.23;;
50291;SDS011;36190;54.980;73.388;2023-08-24T02:17:58;29.00;;;19.02;;
50291;SDS011;36190;54.980;73.388;2023-08-24T02:20:25;28.55;;;18.45;;
50291;SDS011;36190;54.980;73.388;2023-08-24T02:22:53;48.13;;;26.73;;
50291;SDS011;36190;54.980;73.388;2023-08-24T02:25:20;56.03;;;28.42;;
50291;SDS011;36190;54.980;73.388;2023-08-24T02:27:48;54.70;;;28.05;;
50291;SDS011;36190;54.980;73.388;2023-08-24T02:30:16;47.75;;;24.90;;
50291;SDS011;36190;54.980;73.388;2023-08-24T02:32:43;54.08;;;26.52;;
50291;SDS011;36190;54.980;73.388;2023-08-24T02:35:12;50.00;;;24.10;;
50291;SDS011;36190;54.980;73.388;2023-08-24T02:37:40;47.17;;;23.15;;
50291;SDS011;36190;54.980;73.388;2023-08-24T02:40:08;46.20;;;23.27;;
50291;SDS011;36190;54.980;73.388;2023-08-24T02:42:35;49.60;;;24.30;;
50291;SDS011;36190;54.980;73.388;2023-08-24T02:45:03;54.20;;;25.50;;
50291;SDS011;36190;54.980;73.388;2023-08-24T02:47:31;45.28;;;23.00;;
50291;SDS011;36190;54.980;73.388;2023-08-24T02:49:59;56.90;;;24.27;;
50291;SDS011;36190;54.980;73.388;2023-08-24T02:52:28;62.83;;;23.38;;
50291;SDS011;36190;54.980;73.388;2023-08-24T02:54:55;61.67;;;26.00;;
50291;SDS011;36190;54.980;73.388;2023-08-24T02:57:23;64.88;;;26.63;;
50291;SDS011;36190;54.980;73.388;2023-08-24T02:59:51;73.47;;;31.13;;
50291;SDS011;36190;54.980;73.388;2023-08-24T03:02:18;52.83;;;24.27;;
50291;SDS011;36190;54.980;73.388;2023-08-24T03:04:46;50.40;;;22.50;;
50291;SDS011;36190;54.980;73.388;2023-08-24T03:07:13;39.42;;;18.98;;
50291;SDS011;36190;54.980;73.388;2023-08-24T03:09:43;31.38;;;15.43;;
50291;SDS011;36190;54.980;73.388;2023-08-24T03:12:10;28.23;;;14.70;;
50291;SDS011;36190;54.980;73.388;2023-08-24T03:14:38;24.13;;;11.30;;
50291;SDS011;36190;54.980;73.388;2023-08-24T03:17:05;21.55;;;11.15;;
50291;SDS011;36190;54.980;73.388;2023-08-24T03:19:33;23.38;;;11.63;;
50291;SDS011;36190;54.980;73.388;2023-08-24T03:22:00;28.83;;;14.30;;
50291;SDS011;36190;54.980;73.388;2023-08-24T03:24:28;30.65;;;16.55;;
50291;SDS011;36190;54.980;73.388;2023-08-24T03:26:57;28.38;;;14.40;;
50291;SDS011;36190;54.980;73.388;2023-08-24T03:29:24;31.63;;;15.65;;
50291;SDS011;36190;54.980;73.388;2023-08-24T03:31:52;26.23;;;14.30;;
50291;SDS011;36190;54.980;73.388;2023-08-24T03:34:20;22.77;;;13.73;;
50291;SDS011;36190;54.980;73.388;2023-08-24T03:36:47;27.25;;;13.43;;
50291;SDS011;36190;54.980;73.388;2023-08-24T03:39:15;24.15;;;13.48;;
50291;SDS011;36190;54.980;73.388;2023-08-24T03:41:42;20.88;;;13.13;;
50291;SDS011;36190;54.980;73.388;2023-08-24T03:44:11;21.27;;;12.90;;
50291;SDS011;36190;54.980;73.388;2023-08-24T03:46:39;20.98;;;13.27;;
50291;SDS011;36190;54.980;73.388;2023-08-24T03:49:06;23.38;;;13.45;;
50291;SDS011;36190;54.980;73.388;2023-08-24T03:51:34;12.02;;;6.45;;
50291;SDS011;36190;54.980;73.388;2023-08-24T03:54:01;11.35;;;4.85;;
50291;SDS011;36190;54.980;73.388;2023-08-24T03:56:30;16.17;;;6.22;;
50291;SDS011;36190;54.980;73.388;2023-08-24T03:58:58;12.90;;;6.25;;
50291;SDS011;36190;54.980;73.388;2023-08-24T04:01:27;11.07;;;4.25;;
50291;SDS011;36190;54.980;73.388;2023-08-24T04:03:54;14.45;;;6.93;;
50291;SDS011;36190;54.980;73.388;2023-08-24T04:06:22;10.85;;;3.60;;
50291;SDS011;36190;54.980;73.388;2023-08-24T04:08:50;9.20;;;4.03;;
50291;SDS011;36190;54.980;73.388;2023-08-24T04:11:18;14.10;;;4.75;;
50291;SDS011;36190;54.980;73.388;2023-08-24T04:13:46;11.38;;;3.78;;
50291;SDS011;36190;54.980;73.388;2023-08-24T04:16:13;8.65;;;3.30;;
50291;SDS011;36190;54.980;73.388;2023-08-24T04:18:42;8.38;;;3.67;;
50291;SDS011;36190;54.980;73.388;2023-08-24T04:21:10;10.77;;;3.55;;
50291;SDS011;36190;54.980;73.388;2023-08-24T04:23:37;7.85;;;3.28;;
50291;SDS011;36190;54.980;73.388;2023-08-24T04:26:10;11.00;;;4.10;;
50291;SDS011;36190;54.980;73.388;2023-08-24T04:28:38;9.32;;;3.67;;
50291;SDS011;36190;54.980;73.388;2023-08-24T04:31:06;10.23;;;4.00;;
50291;SDS011;36190;54.980;73.388;2023-08-24T04:33:33;7.00;;;3.30;;
50291;SDS011;36190;54.980;73.388;2023-08-24T04:36:03;11.43;;;4.05;;
50291;SDS011;36190;54.980;73.388;2023-08-24T04:38:31;9.00;;;3.60;;
50291;SDS011;36190;54.980;73.388;2023-08-24T04:40:58;8.00;;;3.00;;
50291;SDS011;36190;54.980;73.388;2023-08-24T04:43:26;9.18;;;3.10;;
50291;SDS011;36190;54.980;73.388;2023-08-24T04:45:54;9.80;;;3.80;;
50291;SDS011;36190;54.980;73.388;2023-08-24T04:48:22;10.27;;;3.13;;
50291;SDS011;36190;54.980;73.388;2023-08-24T04:50:51;11.88;;;3.45;;
50291;SDS011;36190;54.980;73.388;2023-08-24T04:53:23;12.57;;;3.20;;
50291;SDS011;36190;54.980;73.388;2023-08-24T04:55:50;10.05;;;3.53;;
50291;SDS011;36190;54.980;73.388;2023-08-24T04:58:18;8.88;;;2.92;;
50291;SDS011;36190;54.980;73.388;2023-08-24T05:00:45;7.55;;;2.70;;
50291;SDS011;36190;54.980;73.388;2023-08-24T05:03:14;7.20;;;2.70;;
50291;SDS011;36190;54.980;73.388;2023-08-24T05:05:41;7.05;;;2.70;;
50291;SDS011;36190;54.980;73.388;2023-08-24T05:08:09;6.45;;;2.80;;
50291;SDS011;36190;54.980;73.388;2023-08-24T05:10:38;10.15;;;3.33;;
50291;SDS011;36190;54.980;73.388;2023-08-24T05:13:05;10.05;;;3.33;;
50291;SDS011;36190;54.980;73.388;2023-08-24T05:15:33;6.78;;;2.72;;
50291;SDS011;36190;54.980;73.388;2023-08-24T05:18:00;5.93;;;2.33;;
50291;SDS011;36190;54.980;73.388;2023-08-24T05:20:28;6.25;;;2.53;;
50291;SDS011;36190;54.980;73.388;2023-08-24T05:22:56;6.68;;;2.30;;
50291;SDS011;36190;54.980;73.388;2023-08-24T05:25:25;6.10;;;2.90;;
50291;SDS011;36190;54.980;73.388;2023-08-24T05:27:54;5.60;;;2.40;;
50291;SDS011;36190;54.980;73.388;2023-08-24T05:30:21;8.10;;;2.80;;
50291;SDS011;36190;54.980;73.388;2023-08-24T05:32:49;10.07;;;3.95;;
50291;SDS011;36190;54.980;73.388;2023-08-24T05:35:17;7.93;;;2.50;;
50291;SDS011;36190;54.980;73.388;2023-08-24T05:37:47;6.15;;;2.58;;
50291;SDS011;36190;54.980;73.388;2023-08-24T05:40:15;6.97;;;2.55;;
50291;SDS011;36190;54.980;73.388;2023-08-24T05:42:42;6.55;;;2.53;;
50291;SDS011;36190;54.980;73.388;2023-08-24T05:45:12;7.28;;;2.60;;
50291;SDS011;36190;54.980;73.388;2023-08-24T05:47:39;4.88;;;2.30;;
50291;SDS011;36190;54.980;73.388;2023-08-24T05:50:07;6.03;;;2.60;;
50291;SDS011;36190;54.980;73.388;2023-08-24T05:52:36;8.10;;;2.58;;
50291;SDS011;36190;54.980;73.388;2023-08-24T05:55:04;6.20;;;2.50;;
50291;SDS011;36190;54.980;73.388;2023-08-24T05:57:32;6.80;;;2.90;;
50291;SDS011;36190;54.980;73.388;2023-08-24T06:00:00;6.60;;;2.45;;
50291;SDS011;36190;54.980;73.388;2023-08-24T06:02:29;4.40;;;2.30;;
50291;SDS011;36190;54.980;73.388;2023-08-24T06:04:56;4.50;;;2.10;;
50291;SDS011;36190;54.980;73.388;2023-08-24T06:07:24;7.63;;;2.65;;
50291;SDS011;36190;54.980;73.388;2023-08-24T06:09:51;8.40;;;2.90;;
50291;SDS011;36190;54.980;73.388;2023-08-24T06:12:19;6.75;;;3.00;;
50291;SDS011;36190;54.980;73.388;2023-08-24T06:14:47;6.82;;;2.90;;
50291;SDS011;36190;54.980;73.388;2023-08-24T06:17:14;6.57;;;2.80;;
50291;SDS011;36190;54.980;73.388;2023-08-24T06:19:43;7.65;;;2.90;;
50291;SDS011;36190;54.980;73.388;2023-08-24T06:22:11;7.97;;;3.20;;
50291;SDS011;36190;54.980;73.388;2023-08-24T06:24:38;6.63;;;2.53;;
50291;SDS011;36190;54.980;73.388;2023-08-24T06:27:06;10.18;;;3.15;;
50291;SDS011;36190;54.980;73.388;2023-08-24T06:29:34;6.50;;;3.03;;
50291;SDS011;36190;54.980;73.388;2023-08-24T06:32:01;7.03;;;2.90;;
50291;SDS011;36190;54.980;73.388;2023-08-24T06:34:29;7.57;;;2.97;;
50291;SDS011;36190;54.980;73.388;2023-08-24T06:37:00;9.40;;;3.30;;
50291;SDS011;36190;54.980;73.388;2023-08-24T06:39:28;8.70;;;3.40;;
50291;SDS011;36190;54.980;73.388;2023-08-24T06:41:56;9.40;;;3.38;;
50291;SDS011;36190;54.980;73.388;2023-08-24T06:44:23;8.48;;;3.65;;
50291;SDS011;36190;54.980;73.388;2023-08-24T06:46:51;10.00;;;4.13;;
50291;SDS011;36190;54.980;73.388;2023-08-24T06:49:19;8.75;;;3.75;;
50291;SDS011;36190;54.980;73.388;2023-08-24T06:51:46;6.97;;;3.40;;
50291;SDS011;36190;54.980;73.388;2023-08-24T06:54:15;8.07;;;3.40;;
50291;SDS011;36190;54.980;73.388;2023-08-24T06:56:43;7.43;;;2.83;;
50291;SDS011;36190;54.980;73.388;2023-08-24T06:59:10;7.68;;;2.97;;
50291;SDS011;36190;54.980;73.388;2023-08-24T07:01:38;5.50;;;2.67;;
50291;SDS011;36190;54.980;73.388;2023-08-24T07:04:06;7.78;;;3.03;;
50291;SDS011;36190;54.980;73.388;2023-08-24T07:06:34;6.53;;;2.60;;
50291;SDS011;36190;54.980;73.388;2023-08-24T07:09:02;4.88;;;2.30;;
50291;SDS011;36190;54.980;73.388;2023-08-24T07:11:34;7.35;;;2.75;;
50291;SDS011;36190;54.980;73.388;2023-08-24T07:14:01;8.70;;;2.90;;
50291;SDS011;36190;54.980;73.388;2023-08-24T07:16:29;7.57;;;2.88;;
50291;SDS011;36190;54.980;73.388;2023-08-24T07:18:56;5.38;;;2.80;;
50291;SDS011;36190;54.980;73.388;2023-08-24T07:21:24;6.47;;;2.97;;
50291;SDS011;36190;54.980;73.388;2023-08-24T07:23:52;8.68;;;3.53;;
50291;SDS011;36190;54.980;73.388;2023-08-24T07:26:19;8.95;;;3.63;;
50291;SDS011;36190;54.980;73.388;2023-08-24T07:28:48;6.63;;;3.13;;
50291;SDS011;36190;54.980;73.388;2023-08-24T07:31:16;7.10;;;2.97;;
50291;SDS011;36190;54.980;73.388;2023-08-24T07:33:44;5.32;;;3.05;;
50291;SDS011;36190;54.980;73.388;2023-08-24T07:36:11;6.18;;;3.15;;
50291;SDS011;36190;54.980;73.388;2023-08-24T07:38:39;5.75;;;2.83;;
50291;SDS011;36190;54.980;73.388;2023-08-24T07:41:06;5.72;;;2.30;;
50291;SDS011;36190;54.980;73.388;2023-08-24T07:43:34;6.05;;;2.47;;
50291;SDS011;36190;54.980;73.388;2023-08-24T07:46:04;6.53;;;2.60;;
50291;SDS011;36190;54.980;73.388;2023-08-24T07:48:36;6.28;;;2.70;;
50291;SDS011;36190;54.980;73.388;2023-08-24T07:51:03;5.75;;;2.70;;
50291;SDS011;36190;54.980;73.388;2023-08-24T07:53:31;11.90;;;5.45;;
50291;SDS011;36190;54.980;73.388;2023-08-24T07:55:59;7.90;;;3.13;;
50291;SDS011;36190;54.980;73.388;2023-08-24T07:58:27;8.60;;;3.25;;
50291;SDS011;36190;54.980;73.388;2023-08-24T08:00:56;5.70;;;2.55;;
50291;SDS011;36190;54.980;73.388;2023-08-24T08:03:26;5.28;;;2.50;;
50291;SDS011;36190;54.980;73.388;2023-08-24T08:05:53;5.57;;;2.30;;
50291;SDS011;36190;54.980;73.388;2023-08-24T08:08:21;5.70;;;2.63;;
50291;SDS011;36190;54.980;73.388;2023-08-24T08:10:55;4.95;;;2.40;;
50291;SDS011;36190;54.980;73.388;2023-08-24T08:13:25;9.65;;;2.72;;
50291;SDS011;36190;54.980;73.388;2023-08-24T08:15:52;3.50;;;2.03;;
50291;SDS011;36190;54.980;73.388;2023-08-24T08:18:20;6.43;;;2.90;;
50291;SDS011;36190;54.980;73.388;2023-08-24T08:20:50;6.97;;;3.33;;
50291;SDS011;36190;54.980;73.388;2023-08-24T08:23:18;5.57;;;2.92;;
50291;SDS011;36190;54.980;73.388;2023-08-24T08:25:46;4.03;;;2.28;;
50291;SDS011;36190;54.980;73.388;2023-08-24T08:28:13;5.18;;;2.40;;
50291;SDS011;36190;54.980;73.388;2023-08-24T08:30:41;6.45;;;2.90;;
50291;SDS011;36190;54.980;73.388;2023-08-24T08:33:08;5.80;;;2.53;;
50291;SDS011;36190;54.980;73.388;2023-08-24T08:35:36;7.82;;;3.30;;
50291;SDS011;36190;54.980;73.388;2023-08-24T08:38:06;5.25;;;2.60;;
50291;SDS011;36190;54.980;73.388;2023-08-24T08:40:36;4.30;;;2.28;;
50291;SDS011;36190;54.980;73.388;2023-08-24T08:43:04;5.68;;;2.50;;
50291;SDS011;36190;54.980;73.388;2023-08-24T08:45:32;3.85;;;2.33;;
50291;SDS011;36190;54.980;73.388;2023-08-24T08:48:00;3.53;;;2.17;;
50291;SDS011;36190;54.980;73.388;2023-08-24T08:50:31;3.90;;;2.10;;
50291;SDS011;36190;54.980;73.388;2023-08-24T08:53:01;4.68;;;2.20;;
50291;SDS011;36190;54.980;73.388;2023-08-24T08:55:31;6.30;;;2.30;;
50291;SDS011;36190;54.980;73.388;2023-08-24T08:57:59;12.90;;;5.57;;
50291;SDS011;36190;54.980;73.388;2023-08-24T09:00:29;6.63;;;3.00;;
50291;SDS011;36190;54.980;73.388;2023-08-24T09:02:58;6.30;;;2.83;;
50291;SDS011;36190;54.980;73.388;2023-08-24T09:05:28;6.07;;;2.90;;
50291;SDS011;36190;54.980;73.388;2023-08-24T09:07:55;7.88;;;3.30;;
50291;SDS011;36190;54.980;73.388;2023-08-24T09:10:24;8.93;;;3.70;;
50291;SDS011;36190;54.980;73.388;2023-08-24T09:12:53;7.78;;;3.20;;
50291;SDS011;36190;54.980;73.388;2023-08-24T09:15:24;5.47;;;2.78;;
50291;SDS011;36190;54.980;73.388;2023-08-24T09:17:53;5.00;;;2.38;;
50291;SDS011;36190;54.980;73.388;2023-08-24T09:20:21;4.55;;;2.20;;
50291;SDS011;36190;54.980;73.388;2023-08-24T09:22:49;6.32;;;2.20;;
50291;SDS011;36190;54.980;73.388;2023-08-24T09:25:19;5.60;;;2.50;;
50291;SDS011;36190;54.980;73.388;2023-08-24T09:27:57;7.75;;;2.53;;
50291;SDS011;36190;54.980;73.388;2023-08-24T09:30:28;5.72;;;2.50;;
50291;SDS011;36190;54.980;73.388;2023-08-24T09:33:00;7.43;;;2.92;;
50291;SDS011;36190;54.980;73.388;2023-08-24T09:35:33;6.63;;;2.60;;
50291;SDS011;36190;54.980;73.388;2023-08-24T09:38:14;6.15;;;2.55;;
50291;SDS011;36190;54.980;73.388;2023-08-24T09:40:44;5.18;;;2.42;;
50291;SDS011;36190;54.980;73.388;2023-08-24T09:43:15;4.72;;;2.30;;
50291;SDS011;36190;54.980;73.388;2023-08-24T09:45:49;5.65;;;2.60;;
50291;SDS011;36190;54.980;73.388;2023-08-24T09:48:17;5.47;;;2.17;;
50291;SDS011;36190;54.980;73.388;2023-08-24T09:50:45;4.30;;;2.20;;
50291;SDS011;36190;54.980;73.388;2023-08-24T09:53:15;4.65;;;2.22;;
50291;SDS011;36190;54.980;73.388;2023-08-24T09:55:48;5.45;;;2.22;;
50291;SDS011;36190;54.980;73.388;2023-08-24T09:58:22;5.97;;;2.03;;
50291;SDS011;36190;54.980;73.388;2023-08-24T10:00:50;4.53;;;2.10;;
50291;SDS011;36190;54.980;73.388;2023-08-24T10:03:18;3.88;;;2.17;;
50291;SDS011;36190;54.980;73.388;2023-08-24T10:05:47;4.22;;;2.10;;
50291;SDS011;36190;54.980;73.388;2023-08-24T10:08:20;6.97;;;2.70;;
50291;SDS011;36190;54.980;73.388;2023-08-24T10:10:52;4.70;;;2.00;;
50291;SDS011;36190;54.980;73.388;2023-08-24T10:13:26;2.85;;;1.83;;
50291;SDS011;36190;54.980;73.388;2023-08-24T10:16:03;3.55;;;2.00;;
50291;SDS011;36190;54.980;73.388;2023-08-24T10:18:32;3.33;;;1.90;;
50291;SDS011;36190;54.980;73.388;2023-08-24T10:21:00;8.13;;;2.10;;
50291;SDS011;36190;54.980;73.388;2023-08-24T10:23:29;6.95;;;2.22;;
50291;SDS011;36190;54.980;73.388;2023-08-24T10:25:57;3.80;;;1.85;;
50291;SDS011;36190;54.980;73.388;2023-08-24T10:28:28;5.68;;;2.30;;
50291;SDS011;36190;54.980;73.388;2023-08-24T10:30:57;4.60;;;2.00;;
50291;SDS011;36190;54.980;73.388;2023-08-24T10:33:26;6.40;;;2.30;;
50291;SDS011;36190;54.980;73.388;2023-08-24T10:35:57;4.25;;;2.00;;
50291;SDS011;36190;54.980;73.388;2023-08-24T10:38:25;13.20;;;2.28;;
50291;SDS011;36190;54.980;73.388;2023-08-24T10:41:01;8.90;;;2.40;;
50291;SDS011;36190;54.980;73.388;2023-08-24T10:43:31;7.22;;;2.60;;
50291;SDS011;36190;54.980;73.388;2023-08-24T10:46:01;4.38;;;2.20;;
50291;SDS011;36190;54.980;73.388;2023-08-24T10:48:31;7.30;;;2.40;;
50291;SDS011;36190;54.980;73.388;2023-08-24T10:51:21;10.40;;;2.72;;
50291;SDS011;36190;54.980;73.388;2023-08-24T10:53:52;6.43;;;2.20;;
50291;SDS011;36190;54.980;73.388;2023-08-24T10:56:22;5.72;;;2.10;;
50291;SDS011;36190;54.980;73.388;2023-08-24T10:59:10;8.70;;;2.30;;
50291;SDS011;36190;54.980;73.388;2023-08-24T11:01:41;7.43;;;2.13;;
50291;SDS011;36190;54.980;73.388;2023-08-24T11:04:10;7.10;;;2.05;;
50291;SDS011;36190;54.980;73.388;2023-08-24T11:09:24;9.82;;;2.58;;
50291;SDS011;36190;54.980;73.388;2023-08-24T11:11:56;5.85;;;1.95;;
50291;SDS011;36190;54.980;73.388;2023-08-24T11:14:26;4.10;;;1.88;;
50291;SDS011;36190;54.980;73.388;2023-08-24T11:16:56;8.05;;;2.47;;
50291;SDS011;36190;54.980;73.388;2023-08-24T11:19:24;6.05;;;1.77;;
50291;SDS011;36190;54.980;73.388;2023-08-24T11:21:52;5.47;;;1.50;;
50291;SDS011;36190;54.980;73.388;2023-08-24T11:24:20;5.95;;;1.83;;
50291;SDS011;36190;54.980;73.388;2023-08-24T11:26:48;10.48;;;2.40;;
50291;SDS011;36190;54.980;73.388;2023-08-24T11:29:17;5.10;;;1.95;;
50291;SDS011;36190;54.980;73.388;2023-08-24T11:31:46;4.15;;;1.95;;
50291;SDS011;36190;54.980;73.388;2023-08-24T11:34:15;5.05;;;1.80;;
50291;SDS011;36190;54.980;73.388;2023-08-24T11:36:43;6.97;;;2.08;;
50291;SDS011;36190;54.980;73.388;2023-08-24T11:39:16;3.80;;;2.00;;
50291;SDS011;36190;54.980;73.388;2023-08-24T11:41:45;9.68;;;2.20;;
50291;SDS011;36190;54.980;73.388;2023-08-24T11:44:23;6.30;;;2.15;;
50291;SDS011;36190;54.980;73.388;2023-08-24T11:46:52;5.72;;;2.20;;
50291;SDS011;36190;54.980;73.388;2023-08-24T11:49:19;4.35;;;2.00;;
50291;SDS011;36190;54.980;73.388;2023-08-24T11:51:47;5.80;;;2.00;;
50291;SDS011;36190;54.980;73.388;2023-08-24T11:54:16;9.05;;;2.35;;
50291;SDS011;36190;54.980;73.388;2023-08-24T11:56:46;6.75;;;2.10;;
50291;SDS011;36190;54.980;73.388;2023-08-24T11:59:15;6.47;;;1.88;;
50291;SDS011;36190;54.980;73.388;2023-08-24T12:01:43;8.27;;;2.50;;
50291;SDS011;36190;54.980;73.388;2023-08-24T12:04:15;6.63;;;2.30;;
50291;SDS011;36190;54.980;73.388;2023-08-24T12:06:46;6.53;;;2.47;;
50291;SDS011;36190;54.980;73.388;2023-08-24T12:09:13;10.65;;;2.65;;
50291;SDS011;36190;54.980;73.388;2023-08-24T12:11:41;7.35;;;2.20;;
50291;SDS011;36190;54.980;73.388;2023-08-24T12:14:16;3.50;;;1.90;;
50291;SDS011;36190;54.980;73.388;2023-08-24T12:16:44;6.20;;;1.90;;
50291;SDS011;36190;54.980;73.388;2023-08-24T12:19:11;3.78;;;1.90;;
50291;SDS011;36190;54.980;73.388;2023-08-24T12:21:41;7.07;;;1.90;;
50291;SDS011;36190;54.980;73.388;2023-08-24T12:24:13;7.25;;;2.10;;
50291;SDS011;36190;54.980;73.388;2023-08-24T12:26:41;5.25;;;2.20;;
50291;SDS011;36190;54.980;73.388;2023-08-24T12:29:08;7.13;;;2.00;;
50291;SDS011;36190;54.980;73.388;2023-08-24T12:31:36;5.85;;;1.90;;
50291;SDS011;36190;54.980;73.388;2023-08-24T12:34:09;5.47;;;1.80;;
50291;SDS011;36190;54.980;73.388;2023-08-24T12:36:36;3.13;;;1.65;;
50291;SDS011;36190;54.980;73.388;2023-08-24T12:39:07;8.98;;;2.00;;
50291;SDS011;36190;54.980;73.388;2023-08-24T12:41:38;7.03;;;2.45;;
50291;SDS011;36190;54.980;73.388;2023-08-24T12:44:05;3.97;;;2.33;;
50291;SDS011;36190;54.980;73.388;2023-08-24T12:46:33;6.68;;;2.65;;
50291;SDS011;36190;54.980;73.388;2023-08-24T12:49:01;7.97;;;2.22;;
50291;SDS011;36190;54.980;73.388;2023-08-24T12:51:29;11.73;;;2.70;;
50291;SDS011;36190;54.980;73.388;2023-08-24T12:53:56;10.18;;;2.45;;
50291;SDS011;36190;54.980;73.388;2023-08-24T12:56:25;11.20;;;2.67;;
50291;SDS011;36190;54.980;73.388;2023-08-24T12:58:53;6.90;;;2.10;;
50291;SDS011;36190;54.980;73.388;2023-08-24T13:01:20;11.32;;;2.50;;
50291;SDS011;36190;54.980;73.388;2023-08-24T13:03:48;6.60;;;2.00;;
50291;SDS011;36190;54.980;73.388;2023-08-24T13:06:15;12.60;;;2.30;;
50291;SDS011;36190;54.980;73.388;2023-08-24T13:08:43;8.40;;;2.33;;
50291;SDS011;36190;54.980;73.388;2023-08-24T13:11:10;8.98;;;2.42;;
50291;SDS011;36190;54.980;73.388;2023-08-24T13:13:39;7.00;;;2.10;;
50291;SDS011;36190;54.980;73.388;2023-08-24T13:16:07;4.80;;;2.33;;
50291;SDS011;36190;54.980;73.388;2023-08-24T13:18:35;9.02;;;2.65;;
50291;SDS011;36190;54.980;73.388;2023-08-24T13:21:02;16.77;;;3.30;;
50291;SDS011;36190;54.980;73.388;2023-08-24T13:23:30;8.18;;;2.47;;
50291;SDS011;36190;54.980;73.388;2023-08-24T13:25:58;11.68;;;3.03;;
50291;SDS011;36190;54.980;73.388;2023-08-24T13:28:29;12.50;;;3.22;;
50291;SDS011;36190;54.980;73.388;2023-08-24T13:30:58;13.13;;;3.00;;
50291;SDS011;36190;54.980;73.388;2023-08-24T13:33:26;11.88;;;2.90;;
50291;SDS011;36190;54.980;73.388;2023-08-24T13:35:56;6.18;;;2.40;;
50291;SDS011;36190;54.980;73.388;2023-08-24T13:38:23;14.60;;;3.50;;
50291;SDS011;36190;54.980;73.388;2023-08-24T13:40:50;11.75;;;3.05;;
50291;SDS011;36190;54.980;73.388;2023-08-24T13:43:18;13.38;;;3.38;;
50291;SDS011;36190;54.980;73.388;2023-08-24T13:45:45;7.80;;;2.60;;
50291;SDS011;36190;54.980;73.388;2023-08-24T13:48:14;7.45;;;2.95;;
50291;SDS011;36190;54.980;73.388;2023-08-24T13:50:49;10.00;;;3.70;;
50291;SDS011;36190;54.980;73.388;2023-08-24T13:53:17;15.45;;;4.30;;
50291;SDS011;36190;54.980;73.388;2023-08-24T13:55:45;11.88;;;4.15;;
50291;SDS011;36190;54.980;73.388;2023-08-24T13:58:12;15.73;;;5.43;;
50291;SDS011;36190;54.980;73.388;2023-08-24T14:00:40;14.95;;;6.20;;
50291;SDS011;36190;54.980;73.388;2023-08-24T14:03:08;16.42;;;5.78;;
50291;SDS011;36190;54.980;73.388;2023-08-24T14:05:39;13.65;;;5.90;;
50291;SDS011;36190;54.980;73.388;2023-08-24T14:08:07;14.48;;;5.90;;
50291;SDS011;36190;54.980;73.388;2023-08-24T14:10:34;12.65;;;5.00;;
50291;SDS011;36190;54.980;73.388;2023-08-24T14:13:02;11.20;;;4.63;;
50291;SDS011;36190;54.980;73.388;2023-08-24T14:15:30;9.55;;;3.90;;
50291;SDS011;36190;54.980;73.388;2023-08-24T14:17:57;9.40;;;4.05;;
50291;SDS011;36190;54.980;73.388;2023-08-24T14:20:25;14.10;;;4.30;;
50291;SDS011;36190;54.980;73.388;2023-08-24T14:22:54;12.25;;;4.45;;
50291;SDS011;36190;54.980;73.388;2023-08-24T14:25:22;9.57;;;4.85;;
50291;SDS011;36190;54.980;73.388;2023-08-24T14:27:50;9.93;;;4.40;;
50291;SDS011;36190;54.980;73.388;2023-08-24T14:30:17;12.10;;;4.40;;
50291;SDS011;36190;54.980;73.388;2023-08-24T14:32:46;15.20;;;4.70;;
50291;SDS011;36190;54.980;73.388;2023-08-24T14:35:13;12.30;;;5.78;;
50291;SDS011;36190;54.980;73.388;2023-08-24T14:37:41;16.27;;;5.53;;
50291;SDS011;36190;54.980;73.388;2023-08-24T14:40:10;12.20;;;5.93;;